createdAt,value
2023-03-26T00:01:21.420Z,4.93
2023-03-26T00:03:53.977Z,4.85
2023-03-26T00:06:29.505Z,5.68
2023-03-26T00:08:58.517Z,6.28
2023-03-26T00:11:27.781Z,5.40
2023-03-26T00:13:58.324Z,5.90
2023-03-26T00:16:28.100Z,5.28
2023-03-26T00:18:54.881Z,5.68
2023-03-26T00:21:28.011Z,5.53
2023-03-26T00:24:04.990Z,5.63
2023-03-26T00:26:38.577Z,6.03
2023-03-26T00:29:06.868Z,6.03
2023-03-26T00:31:34.321Z,5.20
2023-03-26T00:34:03.663Z,5.90
2023-03-26T00:36:35.713Z,5.70
2023-03-26T00:39:05.213Z,6.18
2023-03-26T00:41:32.196Z,5.93
2023-03-26T00:44:00.094Z,6.13
2023-03-26T00:46:29.377Z,5.95
2023-03-26T00:48:59.136Z,5.10
2023-03-26T00:51:30.123Z,5.53
2023-03-26T00:53:57.979Z,5.10
2023-03-26T00:56:25.961Z,5.15
2023-03-26T00:58:54.748Z,5.28
2023-03-26T01:01:27.956Z,4.85
2023-03-26T01:04:08.872Z,5.55
2023-03-26T01:06:43.666Z,5.47
2023-03-26T01:09:19.110Z,5.00
2023-03-26T01:11:46.537Z,5.85
2023-03-26T01:14:21.030Z,4.82
2023-03-26T01:16:52.285Z,5.15
2023-03-26T01:19:44.857Z,4.70
2023-03-26T01:22:16.535Z,4.40
2023-03-26T01:24:46.212Z,5.32
2023-03-26T01:27:25.939Z,4.15
2023-03-26T01:30:14.969Z,4.85
2023-03-26T01:33:07.220Z,3.92
2023-03-26T01:35:39.975Z,4.43
2023-03-26T01:38:13.459Z,4.35
2023-03-26T01:40:47.004Z,4.60
2023-03-26T01:43:29.101Z,3.70
2023-03-26T01:46:00.830Z,3.85
2023-03-26T01:48:36.427Z,4.22
2023-03-26T01:51:07.290Z,4.72
2023-03-26T01:53:37.816Z,4.78
2023-03-26T01:56:16.096Z,4.05
2023-03-26T01:59:00.934Z,5.18
2023-03-26T02:01:32.858Z,3.92
2023-03-26T02:04:24.818Z,4.10
2023-03-26T02:07:09.374Z,4.82
2023-03-26T02:09:46.916Z,4.90
2023-03-26T02:12:14.970Z,4.05
2023-03-26T02:14:42.986Z,4.95
2023-03-26T02:17:10.961Z,4.13
2023-03-26T02:19:42.411Z,4.07
2023-03-26T02:22:11.357Z,4.18
2023-03-26T02:24:38.876Z,3.95
2023-03-26T02:27:07.838Z,4.10
2023-03-26T02:29:40.236Z,4.43
2023-03-26T02:32:13.723Z,4.07
2023-03-26T02:34:41.554Z,3.65
2023-03-26T02:37:09.093Z,4.43
2023-03-26T02:39:36.356Z,4.68
2023-03-26T02:42:02.987Z,4.28
2023-03-26T02:44:29.694Z,4.38
2023-03-26T02:46:56.273Z,3.40
2023-03-26T02:49:22.891Z,4.45
2023-03-26T02:51:49.494Z,3.50
2023-03-26T02:54:16.819Z,4.05
2023-03-26T02:56:43.629Z,4.57
2023-03-26T02:59:10.821Z,3.72
2023-03-26T03:01:42.840Z,3.47
2023-03-26T03:04:13.139Z,4.43
2023-03-26T03:06:41.998Z,4.13
2023-03-26T03:09:08.765Z,3.72
2023-03-26T03:11:36.539Z,3.35
2023-03-26T03:14:06.091Z,3.90
2023-03-26T03:16:33.147Z,3.65
2023-03-26T03:19:02.958Z,3.78
2023-03-26T03:21:29.631Z,3.95
2023-03-26T03:24:00.141Z,3.65
2023-03-26T03:26:30.128Z,3.60
2023-03-26T03:28:58.008Z,5.18
2023-03-26T03:31:26.538Z,3.80
2023-03-26T03:33:53.356Z,3.67
2023-03-26T03:36:22.696Z,3.60
2023-03-26T03:38:50.760Z,3.67
2023-03-26T03:41:22.005Z,3.42
2023-03-26T03:43:48.745Z,3.35
2023-03-26T03:46:15.442Z,3.17
2023-03-26T03:48:48.150Z,3.45
2023-03-26T03:51:14.829Z,3.00
2023-03-26T03:53:46.107Z,3.55
2023-03-26T03:56:14.747Z,3.72
2023-03-26T03:58:45.651Z,3.97
2023-03-26T04:01:13.536Z,3.22
2023-03-26T04:03:40.391Z,3.40
2023-03-26T04:06:11.171Z,2.90
2023-03-26T04:08:40.409Z,3.55
2023-03-26T04:11:07.123Z,2.88
2023-03-26T04:13:33.727Z,3.03
2023-03-26T04:16:02.592Z,3.67
2023-03-26T04:18:32.496Z,4.10
2023-03-26T04:21:02.682Z,2.90
2023-03-26T04:23:29.794Z,4.10
2023-03-26T04:25:57.939Z,3.10
2023-03-26T04:28:47.452Z,2.75
2023-03-26T04:31:17.713Z,2.58
2023-03-26T04:33:47.930Z,2.92
2023-03-26T04:36:16.865Z,2.80
2023-03-26T04:38:49.059Z,3.28
2023-03-26T04:41:16.074Z,3.13
2023-03-26T04:43:47.489Z,2.88
2023-03-26T04:46:14.651Z,2.72
2023-03-26T04:48:41.509Z,2.90
2023-03-26T04:51:10.113Z,2.78
2023-03-26T04:53:39.328Z,2.85
2023-03-26T04:56:30.731Z,2.50
2023-03-26T04:58:59.976Z,3.35
2023-03-26T05:01:30.955Z,2.90
2023-03-26T05:04:01.006Z,3.38
2023-03-26T05:06:28.643Z,3.20
2023-03-26T05:08:55.503Z,2.60
2023-03-26T05:11:22.100Z,3.08
2023-03-26T05:13:50.926Z,3.22
2023-03-26T05:16:20.132Z,3.03
2023-03-26T05:18:47.747Z,2.78
2023-03-26T05:21:14.314Z,3.30
2023-03-26T05:23:41.110Z,2.80
2023-03-26T05:26:12.313Z,2.85
2023-03-26T05:28:38.934Z,3.60
2023-03-26T05:31:08.381Z,2.60
2023-03-26T05:33:35.156Z,2.83
2023-03-26T05:36:02.083Z,3.00
2023-03-26T05:38:32.026Z,3.40
2023-03-26T05:41:04.451Z,3.50
2023-03-26T05:43:31.102Z,3.00
2023-03-26T05:45:57.701Z,2.65
2023-03-26T05:48:24.910Z,3.13
2023-03-26T05:50:55.843Z,3.28
2023-03-26T05:53:29.618Z,3.90
2023-03-26T05:55:59.511Z,3.47
2023-03-26T05:58:28.156Z,3.25
2023-03-26T06:01:06.012Z,2.83
2023-03-26T06:03:39.715Z,3.40
2023-03-26T06:06:15.495Z,2.58
2023-03-26T06:09:01.395Z,3.17
2023-03-26T06:11:31.660Z,2.97
2023-03-26T06:13:58.778Z,2.67
2023-03-26T06:16:28.345Z,3.33
2023-03-26T06:18:56.468Z,3.42
2023-03-26T06:21:24.598Z,2.22
2023-03-26T06:23:51.808Z,2.55
2023-03-26T06:26:21.566Z,2.22
2023-03-26T06:28:48.229Z,2.75
2023-03-26T06:31:14.998Z,2.75
2023-03-26T06:33:41.633Z,2.90
2023-03-26T06:36:08.726Z,3.00
2023-03-26T06:38:40.355Z,2.63
2023-03-26T06:41:07.258Z,2.95
2023-03-26T06:43:37.114Z,3.42
2023-03-26T06:46:08.616Z,3.85
2023-03-26T06:48:35.423Z,4.85
2023-03-26T06:51:06.770Z,3.60
2023-03-26T06:53:33.391Z,3.33
2023-03-26T06:56:00.150Z,2.80
2023-03-26T06:58:27.058Z,2.75
2023-03-26T07:00:54.851Z,2.60
2023-03-26T07:03:23.373Z,3.08
2023-03-26T07:05:52.292Z,2.97
2023-03-26T07:08:19.249Z,2.92
2023-03-26T07:10:49.005Z,3.15
2023-03-26T07:13:18.008Z,3.25
2023-03-26T07:15:44.597Z,3.05
2023-03-26T07:18:13.437Z,2.35
2023-03-26T07:20:40.698Z,2.55
2023-03-26T07:23:07.782Z,2.95
2023-03-26T07:25:34.982Z,3.15
2023-03-26T07:28:13.740Z,2.55
2023-03-26T07:30:55.803Z,2.65
2023-03-26T07:33:30.615Z,2.95
2023-03-26T07:36:08.144Z,3.42
2023-03-26T07:38:46.623Z,3.00
2023-03-26T07:41:45.251Z,3.17
2023-03-26T07:44:30.340Z,3.38
2023-03-26T07:47:00.880Z,2.85
2023-03-26T07:49:29.502Z,2.97
2023-03-26T07:51:56.342Z,2.88
2023-03-26T07:54:23.230Z,2.70
2023-03-26T07:57:04.378Z,2.45
2023-03-26T07:59:46.274Z,2.53
2023-03-26T08:02:34.565Z,3.38
2023-03-26T08:05:10.434Z,3.08
2023-03-26T08:08:16.566Z,2.90
2023-03-26T08:10:58.136Z,3.28
2023-03-26T08:13:39.884Z,3.55
2023-03-26T08:16:23.239Z,2.90
2023-03-26T08:19:30.048Z,2.63
2023-03-26T08:22:11.991Z,3.67
2023-03-26T08:25:02.076Z,2.78
2023-03-26T08:27:43.799Z,3.92
2023-03-26T08:30:21.307Z,2.83
2023-03-26T08:33:25.906Z,3.20
2023-03-26T08:35:52.685Z,2.67
2023-03-26T08:38:21.004Z,3.35
2023-03-26T08:41:15.115Z,3.33
2023-03-26T08:44:13.698Z,2.63
2023-03-26T08:46:49.456Z,3.20
2023-03-26T08:50:00.741Z,2.63
2023-03-26T08:53:01.384Z,3.47
2023-03-26T08:55:36.533Z,2.88
2023-03-26T08:58:12.257Z,3.08
2023-03-26T09:00:57.672Z,3.70
2023-03-26T09:03:39.294Z,4.15
2023-03-26T09:06:12.112Z,3.50
2023-03-26T09:09:07.624Z,4.45
2023-03-26T09:12:33.341Z,3.45
2023-03-26T09:15:21.124Z,3.60
2023-03-26T09:17:47.716Z,3.05
2023-03-26T09:20:41.478Z,3.63
2023-03-26T09:23:36.476Z,3.50
2023-03-26T09:26:29.910Z,3.88
2023-03-26T09:29:37.415Z,4.38
2023-03-26T09:32:22.847Z,3.90
2023-03-26T09:34:55.909Z,4.00
2023-03-26T09:37:36.975Z,3.85
2023-03-26T09:40:38.282Z,3.80
2023-03-26T09:43:24.135Z,3.63
2023-03-26T09:46:12.029Z,3.85
2023-03-26T09:48:54.422Z,3.63
2023-03-26T09:51:37.210Z,3.83
2023-03-26T09:54:44.616Z,4.18
2023-03-26T09:57:11.304Z,3.97
2023-03-26T10:00:20.965Z,3.70
2023-03-26T10:03:19.972Z,3.17
2023-03-26T10:06:15.722Z,3.22
2023-03-26T10:08:48.888Z,3.25
2023-03-26T10:11:21.449Z,2.80
2023-03-26T10:14:12.888Z,2.30
2023-03-26T10:16:57.798Z,2.08
2023-03-26T10:19:44.874Z,2.10
2023-03-26T10:22:43.784Z,1.60
2023-03-26T10:25:13.636Z,1.40
2023-03-26T10:27:55.899Z,1.25
2023-03-26T10:30:32.515Z,1.48
2023-03-26T10:33:36.313Z,1.50
2023-03-26T10:36:06.075Z,1.50
2023-03-26T10:38:36.257Z,1.50
2023-03-26T10:41:06.081Z,2.05
2023-03-26T10:44:07.872Z,2.30
2023-03-26T10:46:50.290Z,2.05
2023-03-26T10:49:39.978Z,2.22
2023-03-26T10:52:16.421Z,1.88
2023-03-26T10:54:53.739Z,2.13
2023-03-26T10:57:45.760Z,1.98
2023-03-26T11:00:29.288Z,2.28
2023-03-26T11:03:19.815Z,2.17
2023-03-26T11:06:06.889Z,2.08
2023-03-26T11:08:33.461Z,2.22
2023-03-26T11:11:14.672Z,2.30
2023-03-26T11:14:27.910Z,2.22
2023-03-26T11:17:41.526Z,1.90
2023-03-26T11:20:25.074Z,2.50
2023-03-26T11:23:19.988Z,1.95
2023-03-26T11:25:58.741Z,1.83
2023-03-26T11:28:25.545Z,1.35
2023-03-26T11:31:10.249Z,1.40
2023-03-26T11:33:45.145Z,1.85
2023-03-26T11:36:22.751Z,1.90
2023-03-26T11:38:57.675Z,1.90
2023-03-26T11:41:31.176Z,1.90
2023-03-26T11:44:07.236Z,2.05
2023-03-26T11:46:40.323Z,2.20
2023-03-26T11:49:11.694Z,1.67
2023-03-26T11:51:45.735Z,1.88
2023-03-26T11:54:15.313Z,1.95
2023-03-26T11:57:07.166Z,1.80
2023-03-26T12:00:27.074Z,1.60
2023-03-26T12:02:58.310Z,2.10
2023-03-26T12:05:33.699Z,2.00
2023-03-26T12:08:03.450Z,2.17
2023-03-26T12:10:35.131Z,1.92
2023-03-26T12:13:06.525Z,1.60
2023-03-26T12:15:33.186Z,1.55
2023-03-26T12:18:20.152Z,1.35
2023-03-26T12:20:48.197Z,1.50
2023-03-26T12:24:02.108Z,1.30
2023-03-26T12:26:34.856Z,1.05
2023-03-26T12:29:10.945Z,0.60
2023-03-26T12:31:51.517Z,0.93
2023-03-26T12:34:24.416Z,1.20
2023-03-26T12:36:54.122Z,1.02
2023-03-26T12:40:06.320Z,0.60
2023-03-26T12:44:48.005Z,0.95
2023-03-26T12:45:28.319Z,1.00
2023-03-26T12:48:03.920Z,1.10
2023-03-26T12:50:45.721Z,0.80
2023-03-26T12:53:21.277Z,1.10
2023-03-26T12:56:01.457Z,0.93
2023-03-26T12:58:41.217Z,1.40
2023-03-26T13:01:11.295Z,1.63
2023-03-26T13:03:56.677Z,1.67
2023-03-26T13:06:59.155Z,2.00
2023-03-26T13:09:51.003Z,1.50
2023-03-26T13:12:31.984Z,1.60
2023-03-26T13:15:04.420Z,2.13
2023-03-26T13:17:48.844Z,2.40
2023-03-26T13:20:28.326Z,2.95
2023-03-26T13:23:14.146Z,3.13
2023-03-26T13:25:52.931Z,4.18
2023-03-26T13:28:50.321Z,4.40
2023-03-26T13:31:26.806Z,4.82
2023-03-26T13:34:10.037Z,3.95
2023-03-26T13:36:48.019Z,2.55
2023-03-26T13:39:20.409Z,3.60
2023-03-26T13:42:26.747Z,4.85
2023-03-26T13:45:05.086Z,1.75
2023-03-26T13:47:38.513Z,3.42
2023-03-26T13:50:26.994Z,4.47
2023-03-26T13:53:03.074Z,2.17
2023-03-26T13:55:37.478Z,3.45
2023-03-26T13:58:34.919Z,2.05
2023-03-26T14:01:16.803Z,4.13
2023-03-26T14:03:58.658Z,4.70
2023-03-26T14:06:46.679Z,4.25
2023-03-26T14:09:25.149Z,2.88
2023-03-26T14:12:00.384Z,4.20
2023-03-26T14:14:51.561Z,4.38
2023-03-26T14:17:41.080Z,4.55
2023-03-26T14:20:26.214Z,3.55
2023-03-26T14:23:21.730Z,3.58
2023-03-26T14:26:06.887Z,3.65
2023-03-26T14:28:59.911Z,3.50
2023-03-26T14:31:35.983Z,4.13
2023-03-26T14:34:39.537Z,3.13
2023-03-26T14:37:29.482Z,3.28
2023-03-26T14:40:29.742Z,4.05
2023-03-26T14:43:33.920Z,3.78
2023-03-26T14:46:28.426Z,3.85
2023-03-26T14:49:28.925Z,3.75
2023-03-26T14:52:03.866Z,3.88
2023-03-26T14:54:36.679Z,5.05
2023-03-26T14:57:06.372Z,5.25
2023-03-26T14:59:42.364Z,4.53
2023-03-26T15:02:43.215Z,4.53
2023-03-26T15:05:09.732Z,3.83
2023-03-26T15:07:47.680Z,3.63
2023-03-26T15:10:38.721Z,3.92
2023-03-26T15:13:36.370Z,3.63
2023-03-26T15:16:41.594Z,4.90
2023-03-26T15:19:41.805Z,3.38
2023-03-26T15:22:25.927Z,3.30
2023-03-26T15:25:26.924Z,2.63
2023-03-26T15:28:12.392Z,2.65
2023-03-26T15:31:00.882Z,1.50
2023-03-26T15:33:57.266Z,3.03
2023-03-26T15:36:45.637Z,2.58
2023-03-26T15:39:59.149Z,3.05
2023-03-26T15:42:42.154Z,2.95
2023-03-26T15:45:14.530Z,0.85
2023-03-26T15:47:56.560Z,1.73
2023-03-26T15:50:38.123Z,2.85
2023-03-26T15:53:33.646Z,1.38
2023-03-26T15:56:16.092Z,3.03
2023-03-26T15:58:42.962Z,2.65
2023-03-26T16:01:33.996Z,2.22
2023-03-26T16:04:21.936Z,1.67
2023-03-26T16:07:03.382Z,1.80
2023-03-26T16:09:30.645Z,2.38
2023-03-26T16:12:00.308Z,1.55
2023-03-26T16:14:36.369Z,1.70
2023-03-26T16:17:07.268Z,1.70
2023-03-26T16:19:48.083Z,0.85
2023-03-26T16:22:53.303Z,0.77
2023-03-26T16:25:28.711Z,2.35
2023-03-26T16:28:10.753Z,1.63
2023-03-26T16:30:38.358Z,1.77
2023-03-26T16:33:18.472Z,1.35
2023-03-26T16:36:18.398Z,1.80
2023-03-26T16:38:53.591Z,2.90
2023-03-26T16:41:26.142Z,1.30
2023-03-26T16:44:05.382Z,2.00
2023-03-26T16:46:44.067Z,1.58
2023-03-26T16:49:10.636Z,1.92
2023-03-26T16:51:39.993Z,1.90
2023-03-26T16:54:07.191Z,2.60
2023-03-26T16:56:48.878Z,2.30
2023-03-26T16:59:46.516Z,2.28
2023-03-26T17:02:41.805Z,2.30
2023-03-26T17:05:09.458Z,1.55
2023-03-26T17:07:45.962Z,2.42
2023-03-26T17:10:30.798Z,2.25
2023-03-26T17:13:20.488Z,2.13
2023-03-26T17:16:03.472Z,1.63
2023-03-26T17:18:45.674Z,1.60
2023-03-26T17:21:20.684Z,2.05
2023-03-26T17:23:59.598Z,0.82
2023-03-26T17:26:29.030Z,1.60
2023-03-26T17:29:27.339Z,1.75
2023-03-26T17:32:15.090Z,1.75
2023-03-26T17:34:50.981Z,1.60
2023-03-26T17:37:18.883Z,2.22
2023-03-26T17:39:46.855Z,1.95
2023-03-26T17:42:16.113Z,2.30
2023-03-26T17:44:44.599Z,1.70
2023-03-26T17:47:31.277Z,1.73
2023-03-26T17:50:17.970Z,1.40
2023-03-26T17:53:00.317Z,0.93
2023-03-26T17:55:34.076Z,1.93
2023-03-26T17:58:04.197Z,1.50
2023-03-26T18:00:47.150Z,1.23
2023-03-26T18:03:44.346Z,1.27
2023-03-26T18:06:24.582Z,1.70
2023-03-26T18:09:12.066Z,2.10
2023-03-26T18:12:03.931Z,1.75
2023-03-26T18:14:44.473Z,1.17
2023-03-26T18:17:11.446Z,1.50
2023-03-26T18:19:50.061Z,2.05
2023-03-26T18:22:22.328Z,1.67
2023-03-26T18:24:54.529Z,1.73
2023-03-26T18:27:23.065Z,1.48
2023-03-26T18:30:01.963Z,1.75
2023-03-26T18:32:33.850Z,2.30
2023-03-26T18:35:14.374Z,2.10
2023-03-26T18:37:44.252Z,0.98
2023-03-26T18:40:15.407Z,1.88
2023-03-26T18:42:47.730Z,1.00
2023-03-26T18:45:23.368Z,0.95
2023-03-26T18:47:54.284Z,1.02
2023-03-26T18:50:30.980Z,1.33
2023-03-26T18:53:02.555Z,1.17
2023-03-26T18:55:31.137Z,1.05
2023-03-26T18:57:57.813Z,0.98
2023-03-26T19:00:30.383Z,1.60
2023-03-26T19:03:08.186Z,1.20
2023-03-26T19:05:37.698Z,0.95
2023-03-26T19:08:06.429Z,3.00
2023-03-26T19:10:33.592Z,1.25
2023-03-26T19:13:04.461Z,1.70
2023-03-26T19:15:34.190Z,1.50
2023-03-26T19:18:07.323Z,2.20
2023-03-26T19:20:42.322Z,1.48
2023-03-26T19:23:41.109Z,1.45
2023-03-26T19:26:10.346Z,0.90
2023-03-26T19:28:40.784Z,1.15
2023-03-26T19:31:15.068Z,1.20
2023-03-26T19:33:46.264Z,1.10
2023-03-26T19:36:12.821Z,1.30
2023-03-26T19:38:48.705Z,0.98
2023-03-26T19:41:30.679Z,1.17
2023-03-26T19:44:21.387Z,1.20
2023-03-26T19:46:52.921Z,1.52
2023-03-26T19:50:03.842Z,1.05
2023-03-26T19:52:37.348Z,2.00
2023-03-26T19:55:10.126Z,0.50
2023-03-26T19:57:37.822Z,1.75
2023-03-26T20:00:13.729Z,0.98
2023-03-26T20:02:42.453Z,1.90
2023-03-26T20:05:27.217Z,1.60
2023-03-26T20:07:57.532Z,1.92
2023-03-26T20:10:26.672Z,1.67
2023-03-26T20:12:53.778Z,1.42
2023-03-26T20:15:26.275Z,2.13
2023-03-26T20:17:54.692Z,1.33
2023-03-26T20:20:24.919Z,3.22
2023-03-26T20:22:55.764Z,2.83
2023-03-26T20:25:51.672Z,3.20
2023-03-26T20:28:19.417Z,2.42
2023-03-26T20:30:49.998Z,1.30
2023-03-26T20:33:29.014Z,1.58
2023-03-26T20:35:57.424Z,1.30
2023-03-26T20:38:38.977Z,1.17
2023-03-26T20:41:11.932Z,1.27
2023-03-26T20:43:42.400Z,0.80
2023-03-26T20:46:20.444Z,1.15
2023-03-26T20:48:47.917Z,1.38
2023-03-26T20:51:15.311Z,1.65
2023-03-26T20:53:43.968Z,1.38
2023-03-26T20:56:20.766Z,1.42
2023-03-26T20:58:54.757Z,1.13
2023-03-26T21:01:24.989Z,1.63
2023-03-26T21:03:51.634Z,1.58
2023-03-26T21:06:18.255Z,1.23
2023-03-26T21:08:45.251Z,1.08
2023-03-26T21:11:29.752Z,1.83
2023-03-26T21:14:03.701Z,1.40
2023-03-26T21:16:30.557Z,1.40
2023-03-26T21:18:59.485Z,1.60
2023-03-26T21:22:00.933Z,1.17
2023-03-26T21:25:04.351Z,1.07
2023-03-26T21:27:51.568Z,1.50
2023-03-26T21:30:18.470Z,1.10
2023-03-26T21:32:46.276Z,1.30
2023-03-26T21:35:16.361Z,1.90
2023-03-26T21:37:45.641Z,1.80
2023-03-26T21:40:16.694Z,1.70
2023-03-26T21:42:45.617Z,1.10
2023-03-26T21:45:13.570Z,1.43
2023-03-26T21:47:41.211Z,1.97
2023-03-26T21:50:09.354Z,1.93
2023-03-26T21:52:37.247Z,1.50
2023-03-26T21:55:06.601Z,1.47
2023-03-26T21:58:00.898Z,1.57
2023-03-26T22:00:43.047Z,1.27
2023-03-26T22:03:30.079Z,1.40
2023-03-26T22:06:11.633Z,1.73
2023-03-26T22:08:40.807Z,1.20
2023-03-26T22:11:09.216Z,1.97
2023-03-26T22:13:37.993Z,2.17
2023-03-26T22:16:06.909Z,1.33
2023-03-26T22:18:37.383Z,1.73
2023-03-26T22:21:04.771Z,1.53
2023-03-26T22:23:38.234Z,1.80
2023-03-26T22:26:06.060Z,1.33
2023-03-26T22:28:32.924Z,1.17
2023-03-26T22:30:59.964Z,1.40
2023-03-26T22:33:29.052Z,1.63
2023-03-26T22:35:56.097Z,1.37
2023-03-26T22:38:24.833Z,1.37
2023-03-26T22:40:58.082Z,1.37
2023-03-26T22:43:24.933Z,1.40
2023-03-26T22:45:55.118Z,1.63
2023-03-26T22:48:23.882Z,1.50
2023-03-26T22:51:02.040Z,1.43
2023-03-26T22:53:31.744Z,1.27
2023-03-26T22:56:01.135Z,1.43
2023-03-26T22:58:28.348Z,1.80
2023-03-26T23:01:23.097Z,1.50
2023-03-26T23:03:49.915Z,1.47
2023-03-26T23:06:19.343Z,1.30
2023-03-26T23:08:46.288Z,1.27
2023-03-26T23:11:22.622Z,1.40
2023-03-26T23:13:51.786Z,1.27
2023-03-26T23:16:19.884Z,1.60
2023-03-26T23:18:51.318Z,1.43
2023-03-26T23:21:22.100Z,1.43
2023-03-26T23:23:49.968Z,1.60
2023-03-26T23:26:16.745Z,1.80
2023-03-26T23:28:43.837Z,2.30
2023-03-26T23:31:12.424Z,1.63
2023-03-26T23:33:50.262Z,1.47
2023-03-26T23:36:19.058Z,1.33
2023-03-26T23:38:50.200Z,1.27
2023-03-26T23:41:19.376Z,1.20
2023-03-26T23:43:53.629Z,1.27
2023-03-26T23:46:23.554Z,1.20
2023-03-26T23:48:51.199Z,1.20
2023-03-26T23:51:20.120Z,1.30
2023-03-26T23:53:47.914Z,1.27
2023-03-26T23:56:15.406Z,1.40
2023-03-26T23:58:44.902Z,1.60
